createdAt,value
2022-11-12T00:01:34.064Z,2.10
2022-11-12T00:04:02.474Z,1.90
2022-11-12T00:06:32.182Z,1.90
2022-11-12T00:09:00.528Z,1.67
2022-11-12T00:11:28.929Z,1.77
2022-11-12T00:13:57.215Z,1.70
2022-11-12T00:16:25.531Z,1.80
2022-11-12T00:18:55.089Z,1.70
2022-11-12T00:21:23.753Z,1.67
2022-11-12T00:23:53.491Z,1.60
2022-11-12T00:26:21.823Z,1.50
2022-11-12T00:28:50.123Z,1.83
2022-11-12T00:31:18.379Z,1.73
2022-11-12T00:33:46.612Z,1.60
2022-11-12T00:36:15.066Z,1.70
2022-11-12T00:38:43.340Z,1.70
2022-11-12T00:41:13.061Z,1.63
2022-11-12T00:43:41.493Z,1.53
2022-11-12T00:46:09.771Z,1.50
2022-11-12T00:48:38.061Z,1.80
2022-11-12T00:51:07.277Z,1.60
2022-11-12T00:53:35.698Z,1.63
2022-11-12T00:56:04.891Z,1.90
2022-11-12T00:58:36.821Z,1.73
2022-11-12T01:01:10.918Z,1.43
2022-11-12T01:03:40.509Z,1.80
2022-11-12T01:06:13.659Z,1.70
2022-11-12T01:08:42.572Z,1.80
2022-11-12T01:11:12.937Z,1.60
2022-11-12T01:13:44.592Z,2.03
2022-11-12T01:16:15.043Z,1.70
2022-11-12T01:18:44.183Z,1.80
2022-11-12T01:21:12.785Z,1.83
2022-11-12T01:23:42.580Z,1.77
2022-11-12T01:26:12.753Z,1.60
2022-11-12T01:28:42.756Z,1.80
2022-11-12T01:31:17.159Z,1.60
2022-11-12T01:33:47.584Z,1.80
2022-11-12T01:36:17.278Z,1.80
2022-11-12T01:38:46.858Z,1.60
2022-11-12T01:41:17.827Z,1.30
2022-11-12T01:43:47.857Z,1.30
2022-11-12T01:46:21.278Z,1.30
2022-11-12T01:48:54.437Z,1.40
2022-11-12T01:51:25.455Z,1.23
2022-11-12T01:53:57.463Z,1.10
2022-11-12T01:56:28.101Z,1.30
2022-11-12T01:59:02.622Z,1.27
2022-11-12T02:01:31.415Z,1.37
2022-11-12T02:04:00.479Z,1.30
2022-11-12T02:06:28.840Z,1.10
2022-11-12T02:08:57.731Z,1.20
2022-11-12T02:11:26.179Z,1.23
2022-11-12T02:14:01.556Z,0.90
2022-11-12T02:16:35.247Z,1.10
2022-11-12T02:19:05.072Z,1.03
2022-11-12T02:21:35.274Z,1.10
2022-11-12T02:24:05.811Z,1.20
2022-11-12T02:26:38.137Z,1.10
2022-11-12T02:29:06.468Z,1.00
2022-11-12T02:31:34.939Z,1.00
2022-11-12T02:34:03.508Z,1.20
2022-11-12T02:36:32.574Z,1.00
2022-11-12T02:39:02.609Z,1.10
2022-11-12T02:41:31.206Z,0.90
2022-11-12T02:43:59.846Z,1.00
2022-11-12T02:46:28.433Z,0.90
2022-11-12T02:48:56.966Z,1.00
2022-11-12T02:51:25.475Z,1.00
2022-11-12T02:53:53.792Z,0.90
2022-11-12T02:56:23.552Z,1.00
2022-11-12T02:58:51.950Z,1.10
2022-11-12T03:01:20.406Z,1.10
2022-11-12T03:03:48.840Z,1.50
2022-11-12T03:06:17.155Z,1.30
2022-11-12T03:08:45.520Z,1.30
2022-11-12T03:11:15.367Z,1.27
2022-11-12T03:13:46.168Z,1.30
2022-11-12T03:16:14.423Z,1.30
2022-11-12T03:18:42.748Z,1.20
2022-11-12T03:21:11.236Z,1.40
2022-11-12T03:23:39.577Z,1.20
2022-11-12T03:26:08.057Z,1.10
2022-11-12T03:28:36.393Z,1.13
2022-11-12T03:31:06.196Z,1.10
2022-11-12T03:33:34.460Z,1.17
2022-11-12T03:36:02.810Z,1.40
2022-11-12T03:38:31.142Z,1.40
2022-11-12T03:40:59.407Z,1.30
2022-11-12T03:43:27.768Z,1.20
2022-11-12T03:45:56.167Z,1.30
2022-11-12T03:48:26.235Z,1.30
2022-11-12T03:50:58.416Z,1.40
2022-11-12T03:53:27.112Z,1.30
2022-11-12T03:55:55.424Z,1.20
2022-11-12T03:58:24.031Z,1.10
2022-11-12T04:00:52.734Z,1.00
2022-11-12T04:03:21.036Z,1.00
2022-11-12T04:06:08.231Z,1.00
2022-11-12T04:08:39.702Z,1.10
2022-11-12T04:11:10.419Z,1.10
2022-11-12T04:13:39.478Z,1.00
2022-11-12T04:16:27.467Z,0.97
2022-11-12T04:19:14.877Z,0.93
2022-11-12T04:21:51.974Z,1.00
2022-11-12T04:24:39.295Z,0.90
2022-11-12T04:27:08.345Z,1.10
2022-11-12T04:29:54.043Z,0.90
2022-11-12T04:32:23.107Z,1.10
2022-11-12T04:34:51.509Z,0.90
2022-11-12T04:37:23.578Z,0.90
2022-11-12T04:39:52.709Z,1.00
2022-11-12T04:42:38.811Z,0.80
2022-11-12T04:45:09.821Z,0.80
2022-11-12T04:47:40.309Z,1.17
2022-11-12T04:50:14.949Z,1.03
2022-11-12T04:52:45.543Z,0.90
2022-11-12T04:55:14.161Z,1.00
2022-11-12T04:57:42.723Z,1.00
2022-11-12T05:00:14.523Z,0.80
2022-11-12T05:02:43.162Z,1.00
2022-11-12T05:05:11.778Z,0.93
2022-11-12T05:07:40.906Z,0.90
2022-11-12T05:10:12.456Z,1.00
2022-11-12T05:12:41.453Z,1.20
2022-11-12T05:15:12.175Z,1.00
2022-11-12T05:17:44.159Z,1.00
2022-11-12T05:20:13.621Z,1.10
2022-11-12T05:22:47.832Z,1.07
2022-11-12T05:25:20.323Z,1.20
2022-11-12T05:27:48.674Z,1.10
2022-11-12T05:30:17.264Z,1.20
2022-11-12T05:32:45.925Z,1.13
2022-11-12T05:35:14.504Z,1.07
2022-11-12T05:37:43.119Z,1.20
2022-11-12T05:40:12.167Z,1.20
2022-11-12T05:42:42.241Z,1.27
2022-11-12T05:45:11.607Z,1.20
2022-11-12T05:47:40.014Z,1.20
2022-11-12T05:50:09.571Z,1.10
2022-11-12T05:52:38.094Z,1.10
2022-11-12T05:55:07.273Z,1.10
2022-11-12T05:57:35.703Z,1.10
2022-11-12T06:00:06.699Z,1.10
2022-11-12T06:02:34.999Z,1.10
2022-11-12T06:05:03.366Z,1.10
2022-11-12T06:07:31.679Z,1.10
2022-11-12T06:09:59.961Z,0.87
2022-11-12T06:12:28.377Z,0.90
2022-11-12T06:14:56.783Z,1.20
2022-11-12T06:17:26.483Z,1.10
2022-11-12T06:19:54.794Z,1.17
2022-11-12T06:22:23.378Z,1.30
2022-11-12T06:24:51.732Z,1.57
2022-11-12T06:27:20.021Z,2.00
2022-11-12T06:29:48.442Z,2.10
2022-11-12T06:32:16.810Z,2.13
2022-11-12T06:34:46.486Z,2.10
2022-11-12T06:37:14.755Z,2.57
2022-11-12T06:39:43.063Z,2.70
2022-11-12T06:42:11.411Z,2.90
2022-11-12T06:44:39.763Z,3.30
2022-11-12T06:47:08.078Z,3.00
2022-11-12T06:49:36.430Z,2.57
2022-11-12T06:52:06.486Z,2.27
2022-11-12T06:54:34.777Z,1.90
2022-11-12T06:57:03.182Z,1.80
2022-11-12T06:59:31.518Z,1.77
2022-11-12T07:01:59.834Z,1.73
2022-11-12T07:04:28.217Z,1.73
2022-11-12T07:06:56.544Z,1.70
2022-11-12T07:09:26.250Z,1.57
2022-11-12T07:11:54.623Z,1.40
2022-11-12T07:14:22.839Z,1.40
2022-11-12T07:16:51.106Z,1.20
2022-11-12T07:19:19.695Z,1.20
2022-11-12T07:21:47.958Z,1.10
2022-11-12T07:24:16.294Z,1.20
2022-11-12T07:26:47.693Z,1.10
2022-11-12T07:29:30.147Z,1.13
2022-11-12T07:32:04.153Z,1.10
2022-11-12T07:34:32.547Z,1.30
2022-11-12T07:37:00.872Z,1.10
2022-11-12T07:39:29.347Z,1.20
2022-11-12T07:41:59.309Z,1.30
2022-11-12T07:44:27.687Z,1.50
2022-11-12T07:46:56.284Z,1.40
2022-11-12T07:49:24.620Z,1.60
2022-11-12T07:51:52.992Z,1.50
2022-11-12T07:54:21.487Z,1.43
2022-11-12T07:56:49.894Z,1.33
2022-11-12T07:59:19.560Z,1.47
2022-11-12T08:01:48.163Z,1.33
2022-11-12T08:04:16.903Z,1.43
2022-11-12T08:06:45.456Z,1.60
2022-11-12T08:09:13.813Z,1.60
2022-11-12T08:11:43.103Z,1.80
2022-11-12T08:14:11.398Z,1.60
2022-11-12T08:16:41.163Z,1.70
2022-11-12T08:19:09.489Z,1.90
2022-11-12T08:21:38.584Z,1.77
2022-11-12T08:24:07.412Z,1.97
2022-11-12T08:26:35.825Z,2.00
2022-11-12T08:29:08.909Z,1.73
2022-11-12T08:31:38.097Z,2.37
2022-11-12T08:34:17.255Z,2.87
2022-11-12T08:36:48.845Z,3.30
2022-11-12T08:39:17.258Z,2.77
2022-11-12T08:41:45.782Z,3.20
2022-11-12T08:44:14.221Z,3.40
2022-11-12T08:46:42.732Z,2.93
2022-11-12T08:49:12.553Z,2.60
2022-11-12T08:51:40.946Z,2.27
2022-11-12T08:54:09.503Z,2.57
2022-11-12T08:56:38.065Z,2.20
2022-11-12T08:59:07.607Z,2.10
2022-11-12T09:01:36.155Z,2.30
2022-11-12T09:04:04.993Z,2.17
2022-11-12T09:06:34.947Z,2.23
2022-11-12T09:09:03.483Z,2.40
2022-11-12T09:11:31.913Z,2.20
2022-11-12T09:14:00.531Z,2.30
2022-11-12T09:16:29.045Z,2.85
2022-11-12T09:18:57.337Z,3.13
2022-11-12T09:21:25.769Z,2.87
2022-11-12T09:23:55.720Z,3.33
2022-11-12T09:26:24.072Z,5.75
2022-11-12T09:28:55.037Z,4.47
2022-11-12T09:31:25.739Z,4.20
2022-11-12T09:33:54.063Z,3.88
2022-11-12T09:36:22.417Z,3.80
2022-11-12T09:38:50.886Z,4.78
2022-11-12T09:41:29.616Z,4.72
2022-11-12T09:44:02.542Z,4.55
2022-11-12T09:46:37.145Z,4.72
2022-11-12T09:49:12.787Z,4.40
2022-11-12T09:51:45.354Z,3.80
2022-11-12T09:54:22.886Z,3.15
2022-11-12T09:56:53.644Z,3.25
2022-11-12T09:59:23.699Z,3.10
2022-11-12T10:01:59.597Z,2.72
2022-11-12T10:04:45.044Z,2.90
2022-11-12T10:07:25.934Z,2.72
2022-11-12T10:10:07.146Z,3.13
2022-11-12T10:12:49.715Z,2.95
2022-11-12T10:15:55.093Z,2.90
2022-11-12T10:18:36.284Z,2.80
2022-11-12T10:21:16.326Z,3.17
2022-11-12T10:23:47.101Z,2.92
2022-11-12T10:26:17.427Z,3.15
2022-11-12T10:28:53.672Z,3.60
2022-11-12T10:31:34.554Z,3.28
2022-11-12T10:34:19.940Z,3.78
2022-11-12T10:36:55.303Z,4.22
2022-11-12T10:39:41.524Z,4.38
2022-11-12T10:42:14.377Z,4.20
2022-11-12T10:44:45.131Z,4.07
2022-11-12T10:47:29.691Z,5.50
2022-11-12T10:50:21.684Z,5.68
2022-11-12T10:53:01.628Z,6.47
2022-11-12T10:55:31.718Z,6.43
2022-11-12T10:58:19.816Z,5.45
2022-11-12T11:01:04.010Z,5.05
2022-11-12T11:03:36.943Z,4.68
2022-11-12T11:06:07.837Z,4.18
2022-11-12T11:08:40.084Z,4.75
2022-11-12T11:11:26.632Z,4.68
2022-11-12T11:13:57.860Z,4.97
2022-11-12T11:16:30.147Z,4.88
2022-11-12T11:19:01.299Z,5.30
2022-11-12T11:22:17.757Z,5.20
2022-11-12T11:24:53.292Z,4.75
2022-11-12T11:27:31.752Z,4.22
2022-11-12T11:30:09.210Z,4.80
2022-11-12T11:33:15.644Z,3.90
2022-11-12T11:35:59.986Z,3.90
2022-11-12T11:38:36.165Z,3.78
2022-11-12T11:41:24.064Z,4.78
2022-11-12T11:44:06.817Z,4.43
2022-11-12T11:46:57.409Z,4.20
2022-11-12T11:49:55.365Z,3.55
2022-11-12T11:52:58.879Z,3.60
2022-11-12T11:59:36.903Z,4.78
2022-11-12T12:02:36.541Z,4.30
2022-11-12T12:05:23.390Z,4.15
2022-11-12T12:08:01.088Z,4.10
2022-11-12T12:11:06.392Z,4.70
2022-11-12T12:13:38.496Z,5.00
2022-11-12T12:16:23.601Z,5.40
2022-11-12T12:18:58.805Z,5.32
2022-11-12T12:21:32.123Z,5.00
2022-11-12T12:24:04.597Z,4.70
2022-11-12T12:26:38.457Z,4.05
2022-11-12T12:29:13.414Z,3.90
2022-11-12T12:31:46.122Z,4.10
2022-11-12T12:34:22.349Z,3.60
2022-11-12T12:36:55.952Z,3.80
2022-11-12T12:39:46.592Z,3.53
2022-11-12T12:42:21.753Z,3.65
2022-11-12T12:45:02.289Z,3.13
2022-11-12T12:47:33.485Z,3.60
2022-11-12T12:50:05.070Z,3.90
2022-11-12T12:53:07.039Z,4.18
2022-11-12T12:55:40.276Z,5.10
2022-11-12T12:58:19.317Z,5.13
2022-11-12T13:00:53.321Z,4.55
2022-11-12T13:03:54.575Z,5.18
2022-11-12T13:06:28.995Z,5.00
2022-11-12T13:09:02.255Z,4.55
2022-11-12T13:12:13.545Z,4.72
2022-11-12T13:15:14.487Z,4.32
2022-11-12T13:17:49.066Z,4.30
2022-11-12T13:20:39.834Z,4.53
2022-11-12T13:24:01.567Z,4.38
2022-11-12T13:26:46.230Z,3.80
2022-11-12T13:29:45.125Z,3.70
2022-11-12T13:32:37.207Z,3.33
2022-11-12T13:35:32.158Z,3.25
2022-11-12T13:38:04.121Z,2.92
2022-11-12T13:40:41.688Z,2.70
2022-11-12T13:43:35.239Z,2.75
2022-11-12T13:46:50.801Z,3.08
2022-11-12T13:49:21.315Z,2.75
2022-11-12T13:51:53.300Z,2.67
2022-11-12T13:54:42.405Z,2.70
2022-11-12T13:57:31.764Z,2.75
2022-11-12T14:00:23.731Z,2.85
2022-11-12T14:03:02.144Z,2.92
2022-11-12T14:05:34.796Z,2.92
2022-11-12T14:08:44.817Z,3.00
2022-11-12T14:11:41.537Z,2.55
2022-11-12T14:14:20.669Z,3.00
2022-11-12T14:17:00.851Z,3.28
2022-11-12T14:19:57.121Z,3.60
2022-11-12T14:22:27.415Z,3.92
2022-11-12T14:25:01.686Z,3.17
2022-11-12T14:27:37.582Z,3.47
2022-11-12T14:30:21.204Z,3.97
2022-11-12T14:32:52.172Z,6.50
2022-11-12T14:35:37.011Z,6.05
2022-11-12T14:38:13.274Z,4.90
2022-11-12T14:40:46.564Z,5.05
2022-11-12T14:43:37.156Z,4.50
2022-11-12T14:46:08.355Z,4.00
2022-11-12T14:48:47.510Z,4.00
2022-11-12T14:51:16.472Z,4.15
2022-11-12T14:53:53.007Z,4.00
2022-11-12T14:56:35.192Z,4.40
2022-11-12T14:59:05.367Z,3.70
2022-11-12T15:04:26.227Z,4.18
2022-11-12T15:06:56.088Z,3.60
2022-11-12T15:09:37.334Z,3.85
2022-11-12T15:12:08.791Z,4.13
2022-11-12T15:14:37.442Z,6.30
2022-11-12T15:17:06.515Z,5.38
2022-11-12T15:19:36.401Z,2.63
2022-11-12T15:22:05.963Z,1.15
2022-11-12T15:24:37.604Z,1.20
2022-11-12T15:27:35.494Z,1.77
2022-11-12T15:30:17.594Z,3.40
2022-11-12T15:32:47.058Z,11.32
2022-11-12T15:35:37.057Z,14.85
2022-11-12T15:38:08.932Z,10.82
2022-11-12T15:40:46.243Z,9.15
2022-11-12T15:43:18.264Z,6.70
2022-11-12T15:45:50.657Z,6.07
2022-11-12T15:48:19.462Z,4.65
2022-11-12T15:50:48.605Z,5.00
2022-11-12T15:53:17.428Z,66.03
2022-11-12T15:55:48.158Z,92.20
2022-11-12T15:58:21.372Z,71.32
2022-11-12T16:00:50.405Z,37.80
2022-11-12T16:03:21.034Z,29.58
2022-11-12T16:05:49.968Z,39.75
2022-11-12T16:08:18.752Z,34.70
2022-11-12T16:10:49.503Z,28.27
2022-11-12T16:13:31.192Z,31.55
2022-11-12T16:16:00.513Z,30.40
2022-11-12T16:18:29.036Z,27.73
2022-11-12T16:20:57.660Z,22.73
2022-11-12T16:23:26.312Z,16.30
2022-11-12T16:25:56.353Z,14.88
2022-11-12T16:28:24.723Z,46.27
2022-11-12T16:30:52.973Z,44.20
2022-11-12T16:33:21.350Z,37.28
2022-11-12T16:35:49.779Z,41.42
2022-11-12T16:38:19.602Z,32.38
2022-11-12T16:40:48.240Z,24.50
2022-11-12T16:43:18.089Z,26.87
2022-11-12T16:45:47.280Z,22.10
2022-11-12T16:48:19.481Z,16.83
2022-11-12T16:50:48.380Z,15.97
2022-11-12T16:53:17.284Z,14.40
2022-11-12T16:55:46.036Z,12.63
2022-11-12T16:58:15.518Z,10.23
2022-11-12T17:00:48.025Z,10.40
2022-11-12T17:03:16.331Z,13.02
2022-11-12T17:05:44.680Z,14.60
2022-11-12T17:08:14.741Z,19.57
2022-11-12T17:10:43.066Z,31.60
2022-11-12T17:13:14.098Z,28.20
2022-11-12T17:15:47.343Z,19.20
2022-11-12T17:18:16.766Z,26.20
2022-11-12T17:20:50.936Z,29.87
2022-11-12T17:23:19.834Z,22.97
2022-11-12T17:25:48.292Z,16.25
2022-11-12T17:28:17.357Z,12.70
2022-11-12T17:30:47.886Z,17.00
2022-11-12T17:33:16.296Z,18.03
2022-11-12T17:35:45.213Z,13.93
2022-11-12T17:38:13.517Z,15.53
2022-11-12T17:40:42.211Z,17.40
2022-11-12T17:43:10.958Z,31.40
2022-11-12T17:45:39.806Z,28.83
2022-11-12T17:48:10.059Z,27.47
2022-11-12T17:50:38.312Z,22.03
2022-11-12T17:53:07.165Z,18.40
2022-11-12T17:55:35.502Z,16.88
2022-11-12T17:58:03.763Z,18.30
2022-11-12T18:00:32.938Z,20.27
2022-11-12T18:03:01.268Z,19.40
2022-11-12T18:05:30.926Z,17.90
2022-11-12T18:08:00.092Z,19.92
2022-11-12T18:10:28.401Z,23.70
2022-11-12T18:12:56.664Z,20.15
2022-11-12T18:15:24.911Z,14.18
2022-11-12T18:17:53.654Z,14.83
2022-11-12T18:20:21.946Z,14.88
2022-11-12T18:22:51.616Z,14.48
2022-11-12T18:25:20.212Z,17.52
2022-11-12T18:27:48.566Z,16.45
2022-11-12T18:30:19.496Z,19.60
2022-11-12T18:32:48.125Z,17.77
2022-11-12T18:35:16.643Z,19.35
2022-11-12T18:37:45.892Z,20.40
2022-11-12T18:40:16.258Z,16.65
2022-11-12T18:42:44.584Z,16.98
2022-11-12T18:45:12.907Z,14.25
2022-11-12T18:47:41.245Z,11.40
2022-11-12T18:50:10.589Z,11.73
2022-11-12T18:52:38.983Z,9.98
2022-11-12T18:55:08.522Z,8.67
2022-11-12T18:57:38.390Z,9.00
2022-11-12T19:00:07.796Z,10.53
2022-11-12T19:02:36.061Z,10.60
2022-11-12T19:05:04.606Z,7.03
2022-11-12T19:07:32.987Z,4.50
2022-11-12T19:10:14.754Z,2.83
2022-11-12T19:12:45.006Z,4.37
2022-11-12T19:15:13.440Z,5.70
2022-11-12T19:17:42.959Z,7.87
2022-11-12T19:20:12.159Z,14.75
2022-11-12T19:22:40.493Z,14.38
2022-11-12T19:25:09.797Z,12.18
2022-11-12T19:27:38.066Z,10.10
2022-11-12T19:30:09.408Z,11.35
2022-11-12T19:32:37.725Z,12.93
2022-11-12T19:35:06.966Z,8.07
2022-11-12T19:37:35.359Z,6.25
2022-11-12T19:40:05.911Z,4.38
2022-11-12T19:42:34.255Z,5.72
2022-11-12T19:45:02.880Z,2.92
2022-11-12T19:47:32.645Z,3.03
2022-11-12T19:50:01.061Z,2.78
2022-11-12T19:52:29.366Z,2.10
2022-11-12T19:54:57.709Z,1.52
2022-11-12T19:57:27.139Z,1.10
2022-11-12T19:59:55.471Z,1.33
2022-11-12T20:02:23.780Z,2.08
2022-11-12T20:04:53.597Z,1.73
2022-11-12T20:07:22.002Z,1.05
2022-11-12T20:09:50.289Z,1.00
2022-11-12T20:12:18.566Z,1.52
2022-11-12T20:14:46.848Z,1.75
2022-11-12T20:17:15.195Z,1.48
2022-11-12T20:19:43.669Z,1.35
2022-11-12T20:22:13.869Z,2.35
2022-11-12T20:24:42.129Z,2.30
2022-11-12T20:27:10.619Z,2.83
2022-11-12T20:29:38.874Z,2.80
2022-11-12T20:32:07.516Z,2.10
2022-11-12T20:34:35.817Z,2.28
2022-11-12T20:37:04.116Z,2.58
2022-11-12T20:39:33.843Z,2.53
2022-11-12T20:42:02.268Z,2.92
2022-11-12T20:44:30.599Z,3.55
2022-11-12T20:46:58.870Z,3.88
2022-11-12T20:49:27.241Z,3.85
2022-11-12T20:51:55.578Z,3.90
2022-11-12T20:54:23.928Z,8.45
2022-11-12T20:56:53.782Z,6.72
2022-11-12T20:59:22.103Z,7.18
2022-11-12T21:01:50.397Z,6.90
2022-11-12T21:04:18.646Z,6.47
2022-11-12T21:06:46.932Z,5.05
2022-11-12T21:09:15.669Z,4.37
2022-11-12T21:11:44.069Z,3.80
2022-11-12T21:14:15.292Z,3.88
2022-11-12T21:16:43.646Z,5.10
2022-11-12T21:19:11.964Z,4.50
2022-11-12T21:21:40.276Z,4.67
2022-11-12T21:24:09.243Z,3.85
2022-11-12T21:26:37.840Z,3.40
2022-11-12T21:29:07.211Z,3.80
2022-11-12T21:31:37.203Z,4.20
2022-11-12T21:34:07.105Z,3.97
2022-11-12T21:36:35.785Z,5.10
2022-11-12T21:39:04.698Z,5.37
2022-11-12T21:41:33.147Z,4.77
2022-11-12T21:44:01.621Z,4.17
2022-11-12T21:46:32.116Z,4.50
2022-11-12T21:49:01.931Z,4.13
2022-11-12T21:51:32.321Z,3.60
2022-11-12T21:54:02.647Z,3.07
2022-11-12T21:56:31.525Z,2.83
2022-11-12T21:59:00.659Z,3.10
2022-11-12T22:01:30.618Z,3.40
2022-11-12T22:04:00.103Z,3.63
2022-11-12T22:06:30.880Z,3.60
2022-11-12T22:08:59.614Z,4.20
2022-11-12T22:11:28.410Z,4.93
2022-11-12T22:13:56.696Z,5.63
2022-11-12T22:16:26.706Z,4.73
2022-11-12T22:18:56.354Z,3.67
2022-11-12T22:21:26.636Z,3.53
2022-11-12T22:23:57.234Z,3.07
2022-11-12T22:26:26.999Z,2.70
2022-11-12T22:28:56.797Z,2.80
2022-11-12T22:31:27.263Z,2.97
2022-11-12T22:33:57.148Z,2.70
2022-11-12T22:36:28.580Z,2.60
2022-11-12T22:38:58.552Z,2.57
2022-11-12T22:41:28.874Z,2.80
2022-11-12T22:43:58.526Z,2.50
2022-11-12T22:46:29.352Z,2.70
2022-11-12T22:48:59.212Z,2.33
2022-11-12T22:51:30.849Z,2.30
2022-11-12T22:54:02.610Z,2.40
2022-11-12T22:56:33.386Z,1.90
2022-11-12T22:59:03.549Z,2.03
2022-11-12T23:01:34.099Z,2.43
2022-11-12T23:04:04.677Z,2.17
2022-11-12T23:06:33.363Z,2.30
2022-11-12T23:09:03.577Z,1.97
2022-11-12T23:11:32.490Z,2.40
2022-11-12T23:14:00.819Z,2.47
2022-11-12T23:16:31.544Z,2.03
2022-11-12T23:19:00.679Z,2.10
2022-11-12T23:21:31.117Z,2.20
2022-11-12T23:24:00.084Z,1.70
2022-11-12T23:26:32.268Z,1.60
2022-11-12T23:29:01.033Z,1.60
2022-11-12T23:31:32.044Z,1.60
2022-11-12T23:34:01.640Z,1.80
2022-11-12T23:36:31.467Z,2.00
2022-11-12T23:39:01.051Z,1.90
2022-11-12T23:41:30.716Z,1.60
2022-11-12T23:44:00.183Z,1.97
2022-11-12T23:46:28.505Z,1.90
2022-11-12T23:48:56.791Z,3.13
2022-11-12T23:51:25.501Z,3.13
2022-11-12T23:53:53.936Z,3.20
2022-11-12T23:56:22.533Z,2.50
2022-11-12T23:58:55.151Z,2.20
